Latest Weather Observations for Burketown Airport

IDQ60801

Issued at 4:02 pm EST Friday 29 May 2015 (issued every 30 minutes, with the page automatically refreshed every 10 minutes)

About weather observations | Map of weather stations | Latest weather observations for QLD | Other Formats
Station Details ID: 029077 Name: BURKETOWN AIRPORT Lat: -17.75 Lon: 139.54 Height: 5.7 m
Data from the previous 72 hours. | See also: Recent months at Burketown Airport
Date/Time
EST
Temp
°C
App
Temp
°C
Dew
Point
Rel
Hum
%
Delta-T
°C
Wind Press
QNH
hPa
Press
MSL
hPa
Rain
since 9 am
mm
Dir
 
Spd
km/h
Gust
km/h
Spd
kts
Gust
kts
29/04:00pm 30.5 29.8 15.4 40 9.3 N 13 20 7 11 1013.6 - 0.0
29/03:30pm 30.6 29.9 15.5 40 9.3 NNE 13 22 7 12 1013.7 - 0.0
29/03:00pm 30.9 29.9 15.7 39 9.4 NNE 15 26 8 14 1013.9 1013.8 0.0
29/02:30pm 30.4 29.3 16.4 43 8.8 NNE 17 26 9 14 1014.2 - 0.0
29/02:00pm 30.7 29.0 16.3 42 9.0 NE 20 30 11 16 1014.4 - 0.0
29/01:30pm 30.3 29.1 17.0 44 8.4 NE 19 28 10 15 1014.8 - 0.0
29/01:00pm 30.9 29.7 17.6 45 8.5 NNE 20 30 11 16 1015.1 - 0.0
29/12:30pm 30.7 29.6 17.7 45 8.3 ENE 20 30 11 16 1015.6 - 0.0
29/12:00pm 30.2 29.2 18.0 48 7.8 NE 20 28 11 15 1016.1 1016.0 0.0
29/11:30am 29.6 28.1 17.8 49 7.5 NE 22 30 12 16 1016.5 - 0.0
29/11:00am 28.8 26.4 17.3 49 7.2 NE 26 32 14 17 1016.6 - 0.0
29/10:30am 28.9 26.8 18.1 52 6.9 NE 26 35 14 19 1017.1 - 0.0
29/10:00am 28.4 26.0 18.2 54 6.5 NE 28 39 15 21 1017.2 - 0.0
29/09:30am 27.0 24.5 17.2 55 6.1 ENE 26 35 14 19 1017.2 - 0.0
29/09:00am 25.8 22.9 16.1 55 5.9 ENE 26 35 14 19 1017.0 1016.9 0.0
29/08:30am 24.1 21.9 14.8 56 5.5 E 20 26 11 14 1016.7 - 0.0
29/08:00am 22.0 20.2 13.4 58 5.0 ESE 15 19 8 10 1016.3 - 0.0
29/07:30am 20.6 18.9 12.6 60 4.5 SE 13 17 7 9 1015.8 - 0.0
29/07:00am 20.8 19.1 12.5 59 4.7 SE 13 15 7 8 1015.6 - 0.0
29/06:30am 20.8 18.8 12.8 60 4.5 SE 15 17 8 9 1015.2 - 0.0
29/06:00am 20.7 18.9 13.2 62 4.3 SSE 15 19 8 10 1015.3 1015.2 0.0
29/05:30am 20.5 18.9 13.9 66 3.8 SSE 15 17 8 9 1014.8 - 0.0
29/05:00am 19.0 18.6 14.1 73 2.8 S 9 11 5 6 1014.6 - 0.0
29/04:30am 18.9 18.7 13.7 72 3.0 S 7 9 4 5 1014.5 - 0.0
29/04:00am 19.6 19.6 14.2 71 3.1 S 7 9 4 5 1014.6 - 0.0
29/03:30am 20.2 20.4 14.6 70 3.3 S 7 9 4 5 1014.6 - 0.0
29/03:00am 20.6 20.8 14.7 69 3.5 S 7 9 4 5 1014.8 1014.7 0.0
29/02:30am 20.8 20.2 14.5 67 3.7 S 11 13 6 7 1014.7 - 0.0
29/02:00am 21.4 20.6 15.0 67 3.8 S 13 15 7 8 1014.9 - 0.0
29/01:30am 20.7 20.0 14.4 67 3.7 S 11 11 6 6 1015.2 - 0.0
29/01:00am 21.2 21.6 15.3 69 3.5 S 7 9 4 5 1015.3 - 0.0
29/12:30am 21.4 21.7 15.0 67 3.8 SSW 7 9 4 5 1015.5 - 0.0
29/12:00am 21.8 22.4 15.9 69 3.5 SW 7 9 4 5 1015.7 1015.6 0.0
 
Date/Time
EST
Temp
°C
App
Temp
°C
Dew
Point
Rel
Hum
%
Delta-T
°C
Wind Press
QNH
hPa
Press
MSL
hPa
Rain
since 9 am
mm
Dir
 
Spd
km/h
Gust
km/h
Spd
kts
Gust
kts
28/11:30pm 21.6 21.5 15.9 70 3.4 WSW 11 11 6 6 1015.8 - 0.0
28/11:00pm 21.5 21.7 15.8 70 3.4 WNW 9 9 5 5 1015.9 - 0.0
28/10:30pm 21.5 21.6 15.6 69 3.5 WNW 9 9 5 5 1016.0 - 0.0
28/10:00pm 21.6 21.7 15.4 68 3.7 NW 9 9 5 5 1015.8 - 0.0
28/09:30pm 21.6 22.0 15.4 68 3.7 WNW 7 9 4 5 1015.7 - 0.0
28/09:00pm 21.3 21.3 14.2 64 4.1 NNW 7 9 4 5 1015.5 1015.4 0.0
28/08:30pm 23.0 22.8 15.6 63 4.4 N 11 11 6 6 1015.3 - 0.0
28/08:00pm 23.5 23.3 15.8 62 4.6 N 11 11 6 6 1015.0 - 0.0
28/07:30pm 23.9 23.7 15.7 60 5.0 N 11 13 6 7 1014.7 - 0.0
28/07:00pm 24.6 24.3 15.5 57 5.5 NNW 11 13 6 7 1014.4 - 0.0
28/06:30pm 26.1 25.8 15.5 52 6.4 NNW 11 13 6 7 1014.2 - 0.0
28/06:00pm 28.4 27.9 16.0 47 7.7 N 13 17 7 9 1014.1 1014.0 0.0
28/05:30pm 29.5 29.0 16.0 44 8.4 NNE 13 15 7 8 1013.9 - 0.0
28/05:00pm 30.3 29.9 16.3 42 8.7 N 13 20 7 11 1013.8 - 0.0
28/04:30pm 30.9 30.8 16.1 41 9.2 NNE 11 17 6 9 1013.7 - 0.0
28/04:00pm 31.1 30.6 15.9 40 9.5 NNE 13 22 7 12 1013.7 - 0.0
28/03:30pm 31.1 30.2 15.9 40 9.5 N 15 20 8 11 1013.7 - 0.0
28/03:00pm 31.6 32.0 16.3 39 9.6 N 9 24 5 13 1013.9 1013.8 0.0
28/02:30pm 31.0 31.0 16.2 41 9.2 N 11 19 6 10 1014.3 - 0.0
28/02:00pm 30.2 29.4 16.2 42 8.7 NNE 15 24 8 13 1014.7 - 0.0
28/01:30pm 30.1 28.9 16.1 42 8.7 NNE 17 22 9 12 1015.1 - 0.0
28/01:00pm 29.5 28.0 16.3 45 8.2 NNE 19 24 10 13 1015.6 - 0.0
28/12:30pm 29.9 28.4 16.7 45 8.3 NE 20 26 11 14 1016.2 - 0.0
28/12:00pm 29.1 27.2 16.6 46 7.8 NE 22 30 12 16 1016.4 1016.3 0.0
28/11:30am 29.4 27.6 16.9 47 7.8 ENE 22 35 12 19 1016.6 - 0.0
28/11:00am 28.6 26.0 16.8 48 7.4 ENE 26 35 14 19 1016.9 - 0.0
28/10:30am 28.5 26.1 17.4 51 7.0 NE 26 33 14 18 1016.8 - 0.0
28/10:00am 27.7 25.0 17.5 53 6.4 ENE 28 35 15 19 1016.9 - 0.0
28/09:30am 26.0 24.8 17.1 58 5.5 E 19 26 10 14 1016.8 - 0.0
28/09:00am 24.4 22.9 15.3 57 5.5 E 17 22 9 12 1016.6 1016.5 0.0
28/08:30am 22.1 19.7 12.6 55 5.4 ESE 17 24 9 13 1016.2 - 0.0
28/08:00am 20.7 18.3 11.3 55 5.2 SE 15 19 8 10 1015.8 - 0.0
28/07:30am 19.1 16.8 10.6 58 4.6 SE 13 15 7 8 1015.4 - 0.0
28/07:00am 18.4 15.8 10.7 61 4.1 SSE 15 17 8 9 1015.0 - 0.0
28/06:30am 18.8 16.7 11.1 61 4.2 SSE 13 15 7 8 1014.7 - 0.0
28/06:00am 18.4 16.8 11.5 64 3.8 S 11 13 6 7 1014.5 1014.4 0.0
28/05:30am 18.5 16.6 11.8 65 3.7 S 13 13 7 7 1014.2 - 0.0
28/05:00am 19.0 17.9 12.0 64 3.9 S 9 11 5 6 1014.0 - 0.0
28/04:30am 18.9 17.2 12.6 67 3.5 S 13 15 7 8 1014.1 - 0.0
28/04:00am 18.8 18.5 13.4 71 3.1 SSW 7 9 4 5 1014.3 - 0.0
28/03:30am 18.7 17.8 13.8 73 2.8 SW 11 13 6 7 1014.1 - 0.0
28/03:00am 18.8 17.5 13.6 72 3.0 SW 13 15 7 8 1014.1 1014.0 0.0
28/02:30am 19.4 18.2 14.0 71 3.1 SW 13 15 7 8 1014.4 - 0.0
28/02:00am 19.0 17.8 14.1 73 2.8 SW 13 15 7 8 1014.7 - 0.0
28/01:30am 19.3 18.3 13.5 69 3.3 SSW 11 13 6 7 1014.8 - 0.0
28/01:00am 19.6 18.9 13.3 67 3.6 SSW 9 9 5 5 1014.9 - 0.0
28/12:30am 19.9 19.3 13.4 66 3.7 SW 9 11 5 6 1014.9 - 0.0
28/12:00am 20.4 19.6 14.1 67 3.6 SW 11 11 6 6 1015.1 1015.0 0.0
 
Date/Time
EST
Temp
°C
App
Temp
°C
Dew
Point
Rel
Hum
%
Delta-T
°C
Wind Press
QNH
hPa
Press
MSL
hPa
Rain
since 9 am
mm
Dir
 
Spd
km/h
Gust
km/h
Spd
kts
Gust
kts
27/11:30pm 20.0 19.5 13.9 68 3.5 WSW 9 11 5 6 1015.1 - 0.0
27/11:00pm 20.6 20.0 13.6 64 4.0 W 9 9 5 5 1015.3 - 0.0
27/10:30pm 20.4 19.9 13.8 66 3.8 W 9 11 5 6 1015.2 - 0.0
27/10:00pm 20.8 20.4 14.2 66 3.8 W 9 11 5 6 1015.2 - 0.0
27/09:30pm 20.5 19.6 13.7 65 3.9 W 11 11 6 6 1015.0 - 0.0
27/09:00pm 21.6 21.0 13.5 60 4.7 NNW 9 11 5 6 1014.9 1014.8 0.0
27/08:30pm 21.6 20.5 13.0 58 4.9 NNW 11 13 6 7 1014.6 - 0.0
27/08:00pm 22.3 21.7 13.4 57 5.1 NNW 9 11 5 6 1014.1 - 0.0
27/07:30pm 23.1 22.5 13.6 55 5.5 NNW 9 11 5 6 1013.7 - 0.0
27/07:00pm 23.9 22.9 13.4 51 6.1 NNW 11 13 6 7 1013.5 - 0.0
27/06:30pm 25.5 24.3 14.0 49 6.8 N 13 15 7 8 1013.4 - 0.0
27/06:00pm 27.6 26.4 13.9 43 8.2 N 13 17 7 9 1013.1 1013.0 0.0
27/05:30pm 29.0 26.9 13.6 38 9.2 N 17 22 9 12 1013.1 - 0.0
27/05:00pm 29.8 28.8 13.5 36 9.7 NNW 11 17 6 9 1013.0 - 0.0
27/04:30pm 29.9 29.0 13.6 36 9.8 NNW 11 17 6 9 1013.0 - 0.0
27/04:00pm 29.8 28.8 13.5 36 9.7 NNE 11 17 6 9 1013.2 - 0.0
27/03:30pm 30.2 29.0 13.9 37 9.8 N 13 19 7 10 1013.7 - 0.0
27/03:00pm 30.2 28.7 14.3 38 9.6 NE 15 22 8 12 1014.1 1014.0 0.0
27/02:30pm 29.8 27.8 14.0 38 9.5 N 17 24 9 13 1014.4 - 0.0
27/02:00pm 30.2 28.0 14.3 38 9.6 NE 19 30 10 16 1014.7 - 0.0
27/01:30pm 29.8 28.0 14.4 39 9.3 NE 17 30 9 16 1015.1 - 0.0
27/01:00pm 29.4 26.4 13.6 38 9.4 ENE 22 28 12 15 1015.8 - 0.0
27/12:30pm 29.3 26.6 14.7 41 8.9 ENE 22 30 12 16 1016.4 - 0.0
27/12:00pm 28.8 25.9 15.0 43 8.4 ENE 24 35 13 19 1016.9 1016.8 0.0
27/11:30am 29.1 26.6 15.2 42 8.5 ENE 22 30 12 16 1017.4 - 0.0
27/11:00am 29.0 26.1 15.2 43 8.4 ENE 24 35 13 19 1017.7 - 0.0
27/10:30am 28.5 25.7 15.4 45 8.0 ENE 24 33 13 18 1018.2 - 0.0
27/10:00am 27.6 25.0 14.9 45 7.7 E 22 32 12 17 1018.4 - 0.0
27/09:30am 26.3 23.7 13.1 44 7.7 E 19 26 10 14 1018.3 - 0.0
27/09:00am 24.9 22.0 12.2 45 7.3 ESE 19 24 10 13 1018.0 1017.9 0.0
27/08:30am 22.9 20.2 10.3 45 6.9 SE 15 19 8 10 1017.8 - 0.0
27/08:00am 20.9 18.1 10.1 50 5.8 SSE 15 19 8 10 1017.6 - 0.0
27/07:30am 19.4 16.6 9.9 54 5.1 SSE 15 17 8 9 1017.1 - 0.0
27/07:00am 18.6 15.8 9.9 57 4.6 SSE 15 17 8 9 1016.6 - 0.0
27/06:30am 19.0 16.1 9.8 55 4.9 SSE 15 17 8 9 1016.3 - 0.0
27/06:00am 20.1 17.0 10.2 53 5.3 SE 17 20 9 11 1015.9 1015.8 0.0
27/05:30am 19.2 16.5 10.2 56 4.8 SE 15 17 8 9 1015.7 - 0.0
27/05:00am 19.8 17.1 10.2 54 5.2 SSE 15 17 8 9 1015.5 - 0.0
27/04:30am 20.1 17.4 10.5 54 5.2 S 15 17 8 9 1015.6 - 0.0
27/04:00am 20.8 18.2 10.6 52 5.6 SSE 15 19 8 10 1015.7 - 0.0
27/03:30am 21.1 18.6 10.9 52 5.6 SSE 15 17 8 9 1015.7 - 0.0
27/03:00am 21.5 19.0 10.9 51 5.8 SSE 15 20 8 11 1015.7 1015.6 0.0
27/02:30am 21.7 19.2 11.1 51 5.9 SSE 15 19 8 10 1015.9 - 0.0
27/02:00am 21.9 19.5 11.3 51 5.9 SSE 15 17 8 9 1016.2 - 0.0
27/01:30am 22.2 20.1 11.3 50 6.1 SSE 13 17 7 9 1016.4 - 0.0
27/01:00am 22.0 19.6 11.4 51 5.9 S 15 17 8 9 1016.5 - 0.0
27/12:30am 21.3 19.2 11.3 53 5.5 S 13 15 7 8 1016.6 - 0.0
27/12:00am 22.3 21.2 12.0 52 5.8 SSE 9 11 5 6 1016.7 1016.6 0.0
 
Date/Time
EST
Temp
°C
App
Temp
°C
Dew
Point
Rel
Hum
%
Delta-T
°C
Wind Press
QNH
hPa
Press
MSL
hPa
Rain
since 9 am
mm
Dir
 
Spd
km/h
Gust
km/h
Spd
kts
Gust
kts
26/11:30pm 19.7 19.0 12.0 61 4.3 SSW 7 9 4 5 1016.9 - 0.0
26/11:00pm 21.0 20.7 13.2 61 4.5 WSW 7 9 4 5 1017.0 - 0.0
26/10:30pm 21.0 20.0 12.4 58 4.8 SW 9 11 5 6 1016.9 - 0.0
26/10:00pm 21.2 19.8 12.3 57 5.0 SW 11 13 6 7 1016.8 - 0.0
26/09:30pm 21.2 20.5 12.1 56 5.1 W 7 7 4 4 1016.6 - 0.0
26/09:00pm 22.0 21.6 12.5 54 5.4 WNW 6 13 3 7 1016.5 1016.4 0.0
26/08:30pm 23.4 22.6 13.0 52 6.0 WSW 9 9 5 5 1016.4 - 0.0
26/08:00pm 23.7 23.0 13.3 52 6.0 WNW 9 11 5 6 1016.2 - 0.0
26/07:30pm 23.0 22.0 12.3 51 6.1 NW 9 13 5 7 1016.0 - 0.0
26/07:00pm 24.4 23.2 12.7 48 6.7 NNW 11 13 6 7 1015.5 - 0.0
26/06:30pm 25.9 24.7 12.7 44 7.7 N 11 13 6 7 1015.1 - 0.0
26/06:00pm 28.4 26.9 13.1 39 9.0 N 13 17 7 9 1015.1 1015.0 0.0
26/05:30pm 30.1 28.2 13.0 35 10.1 N 15 19 8 10 1014.8 - 0.0
26/05:00pm 30.8 29.3 13.1 34 10.5 NNE 13 17 7 9 1014.7 - 0.0
26/04:30pm 31.1 29.5 12.9 32 10.8 NNE 13 20 7 11 1014.7 - 0.0

Other Formats:

Comma delimited format used in spreadsheet applications
http://www.bom.gov.au/fwo/IDQ60801/IDQ60801.94260.axf

JavaScript Object Notation format (JSON) in row-major order
http://www.bom.gov.au/fwo/IDQ60801/IDQ60801.94260.json